PWSweather.com
Personal Weather Stations
Station Observations
SWHWX01
St AppolinardFR 38160

St AppolinardFR 38160

Lat: 45.191, Lon: 5.268

Elevation: 1460

Station Type: Davis Vantage Pro2 Plus

Latest ConditionsUpdated 11:00:01 AM GMT+01:01 Thursday, Jul 18, 2019
Currently Today's Max Today's Min Today's Average
Temperature 77.6°F25.3°C 77.6°F25.3°C 65.7°F18.7°C 70.1°F21.2°C
Dew Point 53.9°F12.2°C 54.0°F12.2°C 46.9°F8.3°C 49.7°F9.8°C
Winds 2.6 mph NE4.2 kmh NE 6.4 mph -10.3 kmh - - 2.6 mph 4.2 kmh
Wind Gusts 3.0 mph4.8 kmh 9.0 mph14.5 kmh - -
Humidity 44% 55% 44% 49%
Pressure 29.89 in1012.2 mb 29.89 in1012.2 mb 29.86 in1011.2 mb -
Hour Temp Dew Point Humidity Winds Wind Gusts Pressure Precip Precip Rate Daily Precip Total
11:00 AM 77.6°F25.3°C 53.9°F12.2°C 44% 2.6 mph NE4.2 kmh NE 3.0 mph4.8 kmh 29.89 in1012.2 mb - 0.00 in0.0 mm 0.00 in0.0 mm
10:30 AM 76.9°F24.9°C 54.0°F12.2°C 45% 3.8 mph NE6.1 kmh NE 6.0 mph9.7 kmh 29.89 in1012.2 mb - 0.00 in0.0 mm 0.00 in0.0 mm
10:00 AM 75.4°F24.1°C 53.2°F11.8°C 46% 2.8 mph NE4.5 kmh NE 3.0 mph4.8 kmh 29.89 in1012.2 mb - 0.00 in0.0 mm 0.00 in0.0 mm
09:30 AM 74.2°F23.4°C 52.7°F11.5°C 47% 3.3 mph N5.3 kmh N 4.0 mph6.4 kmh 29.89 in1012.2 mb - 0.00 in0.0 mm 0.00 in0.0 mm
09:00 AM 73.8°F23.2°C 52.3°F11.3°C 47% 1.2 mph E1.9 kmh E 5.0 mph8.0 kmh 29.89 in1012.2 mb - 0.00 in0.0 mm 0.00 in0.0 mm
08:30 AM 71.8°F22.1°C 52.7°F11.5°C 51% 1.2 mph E1.9 kmh E 4.0 mph6.4 kmh 29.89 in1012.2 mb - 0.00 in0.0 mm 0.00 in0.0 mm
08:00 AM 69.9°F21.1°C 53.0°F11.7°C 55% 0.4 mph E0.6 kmh E 2.0 mph3.2 kmh 29.89 in1012.2 mb - 0.00 in0.0 mm 0.00 in0.0 mm
07:30 AM 69.9°F21.1°C 52.5°F11.4°C 54% 1.6 mph E2.6 kmh E 2.0 mph3.2 kmh 29.88 in1011.9 mb - 0.00 in0.0 mm 0.00 in0.0 mm
07:00 AM 68.1°F20.1°C 51.3°F10.7°C 55% 0.3 mph E0.5 kmh E 2.0 mph3.2 kmh 29.88 in1011.9 mb - 0.00 in0.0 mm 0.00 in0.0 mm
06:30 AM 66.8°F19.3°C 49.6°F9.8°C 54% 2.3 mph NNW3.7 kmh NNW 5.0 mph8.0 kmh 29.87 in1011.5 mb - 0.00 in0.0 mm 0.00 in0.0 mm
06:00 AM 65.7°F18.7°C 48.6°F9.2°C 54% 2.4 mph NNW3.9 kmh NNW 5.0 mph8.0 kmh 29.87 in1011.5 mb - 0.00 in0.0 mm 0.00 in0.0 mm
05:30 AM 66.4°F19.1°C 47.7°F8.7°C 51% 5.7 mph NNW9.2 kmh NNW 9.0 mph14.5 kmh 29.87 in1011.5 mb - 0.00 in0.0 mm 0.00 in0.0 mm
05:00 AM 67.3°F19.6°C 47.4°F8.6°C 49% 4.3 mph NNW6.9 kmh NNW 5.0 mph8.0 kmh 29.87 in1011.5 mb - 0.00 in0.0 mm 0.00 in0.0 mm
04:30 AM 66.9°F19.4°C 47.1°F8.4°C 49% 4.2 mph NNW6.8 kmh NNW 5.0 mph8.0 kmh 29.86 in1011.2 mb - 0.00 in0.0 mm 0.00 in0.0 mm
04:00 AM 67.2°F19.6°C 47.4°F8.6°C 49% 1.7 mph NNW2.7 kmh NNW 3.0 mph4.8 kmh 29.86 in1011.2 mb - 0.00 in0.0 mm 0.00 in0.0 mm
03:30 AM 68.7°F20.4°C 47.1°F8.4°C 46% 1.1 mph NNW1.8 kmh NNW 1.0 mph1.6 kmh 29.86 in1011.2 mb - 0.00 in0.0 mm 0.00 in0.0 mm
03:00 AM 67.6°F19.8°C 47.2°F8.4°C 48% 1.5 mph NNW2.4 kmh NNW 8.0 mph12.9 kmh 29.86 in1011.2 mb - 0.00 in0.0 mm 0.00 in0.0 mm
02:30 AM 68.3°F20.2°C 47.3°F8.5°C 47% 0.6 mph NNW1.0 kmh NNW 2.0 mph3.2 kmh 29.86 in1011.2 mb - 0.00 in0.0 mm 0.00 in0.0 mm
02:00 AM 69.1°F20.6°C 46.9°F8.3°C 45% 3.4 mph NNW5.5 kmh NNW 6.0 mph9.7 kmh 29.86 in1011.2 mb - 0.00 in0.0 mm 0.00 in0.0 mm
01:30 AM 68.9°F20.5°C 47.3°F8.5°C 46% Calm Calm 1.0 mph1.6 kmh 29.87 in1011.5 mb - 0.00 in0.0 mm 0.00 in0.0 mm
01:00 AM 69.9°F21.1°C 47.6°F8.7°C 45% 4.4 mph NNW7.1 kmh NNW 7.0 mph11.3 kmh 29.86 in1011.2 mb - 0.00 in0.0 mm 0.00 in0.0 mm
12:30 AM 70.7°F21.5°C 48.3°F9.1°C 45% 6.4 mph N10.3 kmh N 9.0 mph14.5 kmh 29.87 in1011.5 mb - 0.00 in0.0 mm 0.00 in0.0 mm
12:00 AM 70.6°F21.4°C 48.8°F9.3°C 46% 4.4 mph N7.1 kmh N 7.0 mph11.3 kmh 29.87 in1011.5 mb - 0.00 in0.0 mm 0.00 in0.0 mm